createdAt,value
2019-05-05T00:02:28.243Z,84.03
2019-05-05T00:05:01.297Z,83.71
2019-05-05T00:07:28.743Z,84.15
2019-05-05T00:09:56.181Z,84.87
2019-05-05T00:12:27.576Z,84.51
2019-05-05T00:14:56.985Z,83.78
2019-05-05T00:17:24.959Z,84.33
2019-05-05T00:19:54.834Z,84.88
2019-05-05T00:22:20.154Z,84.81
2019-05-05T00:24:47.616Z,85.05
2019-05-05T00:27:15.116Z,84.61
2019-05-05T00:29:42.501Z,84.57
2019-05-05T00:32:09.948Z,84.48
2019-05-05T00:34:37.366Z,84.34
2019-05-05T00:37:04.869Z,84.09
2019-05-05T00:39:34.335Z,84.38
2019-05-05T00:41:59.727Z,83.80
2019-05-05T00:44:27.722Z,83.19
2019-05-05T00:47:05.353Z,83.04
2019-05-05T00:49:44.859Z,82.64
2019-05-05T00:52:00.115Z,82.18
2019-05-05T00:54:27.535Z,82.78
2019-05-05T00:56:54.973Z,82.77
2019-05-05T00:59:25.308Z,83.16
2019-05-05T01:01:57.469Z,82.36
2019-05-05T01:04:27.238Z,83.64
2019-05-05T01:06:54.708Z,82.82
2019-05-05T01:09:22.284Z,82.21
2019-05-05T01:14:22.465Z,82.53
2019-05-05T01:16:49.895Z,82.37
2019-05-05T01:19:17.344Z,82.56
2019-05-05T01:21:45.413Z,82.69
2019-05-05T01:24:14.279Z,81.87
2019-05-05T01:26:39.702Z,82.51
2019-05-05T01:29:07.155Z,83.09
2019-05-05T01:31:34.786Z,83.48
2019-05-05T01:34:15.188Z,83.74
2019-05-05T01:36:42.340Z,83.36
2019-05-05T01:39:09.793Z,82.58
2019-05-05T01:41:38.623Z,83.07
2019-05-05T01:44:06.082Z,83.56
2019-05-05T01:46:35.328Z,83.71
2019-05-05T01:49:01.049Z,83.79
2019-05-05T01:51:28.605Z,84.09
2019-05-05T01:53:56.051Z,83.70
2019-05-05T01:56:26.399Z,83.62
2019-05-05T01:58:54.772Z,83.80
2019-05-05T02:01:21.309Z,84.69
2019-05-05T02:03:48.728Z,84.58
2019-05-05T02:06:16.214Z,84.25
2019-05-05T02:08:45.468Z,84.00
2019-05-05T02:11:11.520Z,84.94
2019-05-05T02:13:38.931Z,85.51
2019-05-05T02:16:06.367Z,85.72
2019-05-05T02:18:34.612Z,86.13
2019-05-05T02:21:02.086Z,86.19
2019-05-05T02:23:29.807Z,86.37
2019-05-05T02:25:57.244Z,86.52
2019-05-05T02:28:25.612Z,86.49
2019-05-05T02:30:55.001Z,86.76
2019-05-05T02:33:21.474Z,86.70
2019-05-05T02:35:48.925Z,86.50
2019-05-05T02:38:16.606Z,86.14
2019-05-05T02:40:45.267Z,85.85
2019-05-05T02:43:14.689Z,85.93
2019-05-05T02:45:44.039Z,84.70
2019-05-05T02:48:09.129Z,84.49
2019-05-05T02:50:52.419Z,84.17
2019-05-05T02:53:09.583Z,84.52
2019-05-05T02:55:37.086Z,84.29
2019-05-05T02:58:04.511Z,84.50
2019-05-05T03:00:48.407Z,84.18
2019-05-05T03:03:15.854Z,84.35
2019-05-05T03:05:43.534Z,83.72
2019-05-05T03:08:10.922Z,83.75
2019-05-05T03:10:38.362Z,83.35
2019-05-05T03:13:05.806Z,83.78
2019-05-05T03:15:39.108Z,83.61
2019-05-05T03:18:06.533Z,83.84
2019-05-05T03:20:34.406Z,83.94
2019-05-05T03:23:01.466Z,83.77
2019-05-05T03:25:28.879Z,83.77
2019-05-05T03:27:57.143Z,83.59
2019-05-05T03:30:26.102Z,83.44
2019-05-05T03:32:55.664Z,83.76
2019-05-05T03:35:19.552Z,83.72
2019-05-05T03:37:46.975Z,83.46
2019-05-05T03:40:14.876Z,83.39
2019-05-05T03:42:41.876Z,83.99
2019-05-05T03:45:11.872Z,84.21
2019-05-05T03:47:40.283Z,84.27
2019-05-05T03:50:07.839Z,84.36
2019-05-05T03:52:35.305Z,83.74
2019-05-05T03:55:03.836Z,83.41
2019-05-05T03:57:30.184Z,83.54
2019-05-05T03:59:57.638Z,83.63
2019-05-05T04:02:36.839Z,84.22
2019-05-05T04:05:19.962Z,84.47
2019-05-05T04:07:47.425Z,84.41
2019-05-05T04:10:14.898Z,84.71
2019-05-05T04:12:43.524Z,84.80
2019-05-05T04:15:09.797Z,84.42
2019-05-05T04:17:44.285Z,84.39
2019-05-05T04:20:15.925Z,84.48
2019-05-05T04:22:43.589Z,85.40
2019-05-05T04:25:10.811Z,85.49
2019-05-05T04:27:38.269Z,85.88
2019-05-05T04:30:05.683Z,86.26
2019-05-05T04:32:34.824Z,86.42
2019-05-05T04:35:00.611Z,86.76
2019-05-05T04:37:28.437Z,86.76
2019-05-05T04:39:55.870Z,87.19
2019-05-05T04:42:24.485Z,87.32
2019-05-05T04:44:50.786Z,87.27
2019-05-05T04:47:34.272Z,86.84
2019-05-05T04:50:01.322Z,86.88
2019-05-05T04:52:29.532Z,86.78
2019-05-05T04:54:56.976Z,86.59
2019-05-05T04:57:24.432Z,86.93
2019-05-05T04:59:53.881Z,86.93
2019-05-05T05:02:39.581Z,87.10
2019-05-05T05:05:09.508Z,87.53
2019-05-05T05:07:37.367Z,87.09
2019-05-05T05:10:06.827Z,87.06
2019-05-05T05:12:34.356Z,87.15
2019-05-05T05:15:04.114Z,87.21
2019-05-05T05:17:33.728Z,87.83
2019-05-05T05:19:59.160Z,87.79
2019-05-05T05:22:26.571Z,88.17
2019-05-05T05:24:54.236Z,88.55
2019-05-05T05:27:21.448Z,88.74
2019-05-05T05:29:48.889Z,88.47
2019-05-05T05:32:17.238Z,88.14
2019-05-05T05:34:44.744Z,87.77
2019-05-05T05:37:13.498Z,88.25
2019-05-05T05:39:44.038Z,88.66
2019-05-05T05:42:09.948Z,88.44
2019-05-05T05:44:44.538Z,88.89
2019-05-05T05:47:26.771Z,88.67
2019-05-05T05:49:56.996Z,88.78
2019-05-05T05:52:24.439Z,88.69
2019-05-05T05:54:53.515Z,88.14
2019-05-05T05:57:19.374Z,87.57
2019-05-05T05:59:46.789Z,87.01
2019-05-05T06:02:15.663Z,86.94
2019-05-05T06:04:41.695Z,87.04
2019-05-05T06:07:09.178Z,86.89
2019-05-05T06:09:36.617Z,87.51
2019-05-05T06:12:04.057Z,87.56
2019-05-05T06:14:31.488Z,87.32
2019-05-05T06:16:58.943Z,87.78
2019-05-05T06:19:26.381Z,87.50
2019-05-05T06:21:54.323Z,86.71
2019-05-05T06:24:21.299Z,86.53
2019-05-05T06:26:48.758Z,86.48
2019-05-05T06:29:16.197Z,86.28
2019-05-05T06:31:44.780Z,85.92
2019-05-05T06:34:11.142Z,85.54
2019-05-05T06:36:38.543Z,85.46
2019-05-05T06:39:05.997Z,85.88
2019-05-05T06:41:34.178Z,85.84
2019-05-05T06:44:03.683Z,86.77
2019-05-05T06:46:46.229Z,86.50
2019-05-05T06:49:13.782Z,87.09
2019-05-05T06:51:41.156Z,88.00
2019-05-05T06:54:09.784Z,87.67
2019-05-05T06:56:37.275Z,87.03
2019-05-05T06:59:04.748Z,87.25
2019-05-05T07:01:33.772Z,87.53
2019-05-05T07:03:59.661Z,87.32
2019-05-05T07:06:27.123Z,87.53
2019-05-05T07:08:54.732Z,88.08
2019-05-05T07:11:23.798Z,87.19
2019-05-05T07:13:49.531Z,87.57
2019-05-05T07:16:17.579Z,87.68
2019-05-05T07:18:45.034Z,87.99
2019-05-05T07:21:14.281Z,88.34
2019-05-05T07:23:40.113Z,87.97
2019-05-05T07:26:07.570Z,88.16
2019-05-05T07:28:35.122Z,87.77
2019-05-05T07:31:04.446Z,87.75
2019-05-05T07:33:30.012Z,87.05
2019-05-05T07:36:14.598Z,86.99
2019-05-05T07:38:40.557Z,86.79
2019-05-05T07:41:08.710Z,86.43
2019-05-05T07:43:36.295Z,85.58
2019-05-05T07:46:04.433Z,85.38
2019-05-05T07:48:33.601Z,84.83
2019-05-05T07:51:02.835Z,84.08
2019-05-05T07:53:27.118Z,84.03
2019-05-05T07:55:54.569Z,83.11
2019-05-05T07:58:24.124Z,82.67
2019-05-05T08:00:49.916Z,82.98
2019-05-05T08:03:17.380Z,82.54
2019-05-05T08:05:44.917Z,82.35
2019-05-05T08:08:13.982Z,82.26
2019-05-05T08:10:39.815Z,81.94
2019-05-05T08:13:07.251Z,82.70
2019-05-05T08:15:34.767Z,82.28
2019-05-05T08:18:04.582Z,81.14
2019-05-05T08:20:31.011Z,80.90
2019-05-05T08:22:58.491Z,80.93
2019-05-05T08:25:36.858Z,80.45
2019-05-05T08:27:53.931Z,80.00
2019-05-05T08:30:25.987Z,80.03
2019-05-05T08:32:54.538Z,79.27
2019-05-05T08:35:20.914Z,78.52
2019-05-05T08:37:48.361Z,78.41
2019-05-05T08:40:15.857Z,77.97
2019-05-05T08:42:44.561Z,77.62
2019-05-05T08:45:10.891Z,75.47
2019-05-05T08:47:38.359Z,75.30
2019-05-05T08:50:05.779Z,75.36
2019-05-05T08:52:34.253Z,75.39
2019-05-05T08:55:00.691Z,74.22
2019-05-05T08:57:28.120Z,74.35
2019-05-05T08:59:55.567Z,74.14
2019-05-05T09:02:23.952Z,72.95
2019-05-05T09:04:50.478Z,72.72
2019-05-05T09:07:17.958Z,71.89
2019-05-05T09:09:45.413Z,72.32
2019-05-05T09:12:13.895Z,68.73
2019-05-05T09:14:41.017Z,69.82
2019-05-05T09:17:08.495Z,68.65
2019-05-05T09:19:35.937Z,68.56
2019-05-05T09:22:06.784Z,69.51
2019-05-05T09:24:33.967Z,69.44
2019-05-05T09:27:03.667Z,66.61
2019-05-05T09:29:44.036Z,67.51
2019-05-05T09:32:11.099Z,67.77
2019-05-05T09:34:38.644Z,67.35
2019-05-05T09:37:06.095Z,67.51
2019-05-05T09:39:34.521Z,68.56
2019-05-05T09:42:01.099Z,65.53
2019-05-05T09:44:28.544Z,68.18
2019-05-05T09:46:56.017Z,67.17
2019-05-05T09:49:24.593Z,66.51
2019-05-05T09:51:50.938Z,66.65
2019-05-05T09:54:18.367Z,68.32
2019-05-05T09:56:49.155Z,70.28
2019-05-05T10:01:56.884Z,63.51
2019-05-05T10:04:24.433Z,64.96
2019-05-05T10:06:51.845Z,65.78
2019-05-05T10:09:19.283Z,66.71
2019-05-05T10:11:46.737Z,65.16
2019-05-05T10:14:14.422Z,67.63
2019-05-05T10:16:42.666Z,66.85
2019-05-05T10:19:10.105Z,69.90
2019-05-05T10:21:37.555Z,72.69
2019-05-05T10:24:09.338Z,74.16
2019-05-05T10:26:36.952Z,76.19
2019-05-05T10:29:04.385Z,77.12
2019-05-05T10:31:31.871Z,77.44
2019-05-05T10:33:59.398Z,77.45
2019-05-05T10:36:26.836Z,78.11
2019-05-05T10:38:54.648Z,78.66
2019-05-05T10:41:23.459Z,77.05
2019-05-05T10:43:49.527Z,77.31
2019-05-05T10:46:16.979Z,77.55
2019-05-05T10:48:44.663Z,76.63
2019-05-05T10:51:12.068Z,76.53
2019-05-05T10:53:39.494Z,75.85
2019-05-05T10:56:06.931Z,75.93
2019-05-05T10:58:34.357Z,72.58
2019-05-05T11:01:03.983Z,74.83
2019-05-05T11:03:29.245Z,72.81
2019-05-05T11:05:56.710Z,73.23
2019-05-05T11:08:24.201Z,70.95
2019-05-05T11:10:51.680Z,69.73
2019-05-05T11:13:19.137Z,70.62
2019-05-05T11:15:46.571Z,71.26
2019-05-05T11:18:14.757Z,70.61
2019-05-05T11:20:41.479Z,68.95
2019-05-05T11:23:08.933Z,70.03
2019-05-05T11:25:36.375Z,67.65
2019-05-05T11:28:04.627Z,68.26
2019-05-05T11:30:34.059Z,67.52
2019-05-05T11:33:07.156Z,66.84
2019-05-05T11:35:40.346Z,68.62
2019-05-05T11:38:07.782Z,62.82
2019-05-05T11:40:35.187Z,59.15
2019-05-05T11:43:03.824Z,62.76
2019-05-05T11:45:30.093Z,64.58
2019-05-05T11:47:57.541Z,61.33
2019-05-05T11:50:24.991Z,58.44
2019-05-05T11:52:54.342Z,60.73
2019-05-05T11:55:19.947Z,59.27
2019-05-05T11:57:47.410Z,59.92
2019-05-05T12:00:14.939Z,58.00
2019-05-05T12:02:44.240Z,58.72
2019-05-05T12:05:13.992Z,55.62
2019-05-05T12:07:39.149Z,58.24
2019-05-05T12:10:06.652Z,56.25
2019-05-05T12:12:34.076Z,60.25
2019-05-05T12:15:04.344Z,56.79
2019-05-05T12:17:33.965Z,57.25
2019-05-05T12:20:01.543Z,58.67
2019-05-05T12:22:28.979Z,59.44
2019-05-05T12:24:56.446Z,59.14
2019-05-05T12:27:26.287Z,62.59
2019-05-05T12:29:54.577Z,63.98
2019-05-05T12:32:21.171Z,63.64
2019-05-05T12:34:48.610Z,63.64
2019-05-05T12:37:16.073Z,64.37
2019-05-05T12:39:44.251Z,64.74
2019-05-05T12:42:13.930Z,68.68
2019-05-05T12:44:39.236Z,69.78
2019-05-05T12:47:08.560Z,69.75
2019-05-05T12:49:35.999Z,69.60
2019-05-05T12:52:04.581Z,68.92
2019-05-05T12:54:30.882Z,68.38
2019-05-05T12:56:58.321Z,67.79
2019-05-05T12:59:25.965Z,68.59
2019-05-05T13:01:54.697Z,68.67
2019-05-05T13:04:20.853Z,67.18
2019-05-05T13:06:48.316Z,66.99
2019-05-05T13:09:15.808Z,66.45
2019-05-05T13:11:43.730Z,64.92
2019-05-05T13:14:10.729Z,66.26
2019-05-05T13:16:38.196Z,66.80
2019-05-05T13:19:05.701Z,66.39
2019-05-05T13:21:39.585Z,66.42
2019-05-05T13:24:13.706Z,66.29
2019-05-05T13:26:41.596Z,66.48
2019-05-05T13:29:09.079Z,66.28
2019-05-05T13:31:36.534Z,66.28
2019-05-05T13:34:04.430Z,65.69
2019-05-05T13:36:33.435Z,67.19
2019-05-05T13:38:59.047Z,63.01
2019-05-05T13:41:26.598Z,63.15
2019-05-05T13:43:54.081Z,62.67
2019-05-05T13:46:24.691Z,62.58
2019-05-05T13:48:51.029Z,62.82
2019-05-05T13:51:18.461Z,62.14
2019-05-05T13:53:45.900Z,62.45
2019-05-05T13:56:15.399Z,64.15
2019-05-05T13:58:40.831Z,64.38
2019-05-05T14:01:10.054Z,63.53
2019-05-05T14:03:36.080Z,62.58
2019-05-05T14:06:04.750Z,63.47
2019-05-05T14:08:35.596Z,63.39
2019-05-05T14:10:58.979Z,63.81
2019-05-05T14:13:26.426Z,63.89
2019-05-05T14:15:54.489Z,63.18
2019-05-05T14:18:23.086Z,63.43
2019-05-05T14:20:48.982Z,63.45
2019-05-05T14:23:16.281Z,62.81
2019-05-05T14:25:44.066Z,61.54
2019-05-05T14:28:14.022Z,61.82
2019-05-05T14:30:50.302Z,60.92
2019-05-05T14:33:18.475Z,58.75
2019-05-05T14:36:04.662Z,58.94
2019-05-05T14:38:35.586Z,57.23
2019-05-05T14:41:04.147Z,55.71
2019-05-05T14:43:30.588Z,56.69
2019-05-05T14:45:58.028Z,55.93
2019-05-05T14:48:25.746Z,55.69
2019-05-05T14:50:54.350Z,54.86
2019-05-05T14:53:20.649Z,56.58
2019-05-05T14:55:48.303Z,58.87
2019-05-05T14:58:15.745Z,61.04
2019-05-05T15:00:44.270Z,65.86
2019-05-05T15:03:10.700Z,69.83
2019-05-05T15:05:54.980Z,71.98
2019-05-05T15:08:26.250Z,74.45
2019-05-05T15:11:10.346Z,75.36
2019-05-05T15:13:37.767Z,74.62
2019-05-05T15:16:05.322Z,77.43
2019-05-05T15:18:34.573Z,75.41
2019-05-05T15:21:00.332Z,74.17
2019-05-05T15:23:27.774Z,72.32
2019-05-05T15:25:55.238Z,73.44
2019-05-05T15:28:24.570Z,71.49
2019-05-05T15:30:50.242Z,74.08
2019-05-05T15:33:17.670Z,72.82
2019-05-05T15:35:46.590Z,71.01
2019-05-05T15:38:13.798Z,69.11
2019-05-05T15:40:40.061Z,68.30
2019-05-05T15:43:08.515Z,69.83
2019-05-05T15:45:36.024Z,68.69
2019-05-05T15:48:04.600Z,70.47
2019-05-05T15:50:31.035Z,70.39
2019-05-05T15:52:58.489Z,69.73
2019-05-05T15:55:25.931Z,70.50
2019-05-05T15:57:53.412Z,70.50
2019-05-05T16:00:20.858Z,68.20
2019-05-05T16:02:48.291Z,68.06
2019-05-05T16:05:15.750Z,62.79
2019-05-05T16:07:43.975Z,63.41
2019-05-05T16:10:10.661Z,61.40
2019-05-05T16:12:39.681Z,63.10
2019-05-05T16:15:10.324Z,61.70
2019-05-05T16:17:41.297Z,61.58
2019-05-05T16:20:24.429Z,58.00
2019-05-05T16:23:06.718Z,55.87
2019-05-05T16:25:34.171Z,55.72
2019-05-05T16:28:01.628Z,56.14
2019-05-05T16:30:29.080Z,55.56
2019-05-05T16:32:56.573Z,58.40
2019-05-05T16:35:23.997Z,57.21
2019-05-05T16:37:51.494Z,56.28
2019-05-05T16:40:19.793Z,57.20
2019-05-05T16:42:47.261Z,57.56
2019-05-05T16:45:16.472Z,56.80
2019-05-05T16:47:44.270Z,58.71
2019-05-05T16:50:10.218Z,58.28
2019-05-05T16:52:41.096Z,58.02
2019-05-05T16:55:09.010Z,57.52
2019-05-05T16:57:36.819Z,57.85
2019-05-05T17:00:03.932Z,58.70
2019-05-05T17:02:33.256Z,57.76
2019-05-05T17:04:58.873Z,59.55
2019-05-05T17:07:26.331Z,58.23
2019-05-05T17:09:53.830Z,58.16
2019-05-05T17:12:21.267Z,59.11
2019-05-05T17:14:54.307Z,58.38
2019-05-05T17:17:23.275Z,58.47
2019-05-05T17:19:50.131Z,57.76
2019-05-05T17:22:18.104Z,57.96
2019-05-05T17:24:45.561Z,56.84
2019-05-05T17:27:13.957Z,57.16
2019-05-05T17:29:41.016Z,56.08
2019-05-05T17:32:08.505Z,56.50
2019-05-05T17:34:35.957Z,54.56
2019-05-05T17:37:04.299Z,52.33
2019-05-05T17:39:30.940Z,53.78
2019-05-05T17:41:59.201Z,52.97
2019-05-05T17:44:26.658Z,53.72
2019-05-05T17:46:55.627Z,52.90
2019-05-05T17:49:28.572Z,54.45
2019-05-05T17:51:57.937Z,55.54
2019-05-05T17:54:40.529Z,55.71
2019-05-05T17:57:08.010Z,55.99
2019-05-05T17:59:35.463Z,56.89
2019-05-05T18:02:04.766Z,57.47
2019-05-05T18:04:30.392Z,57.48
2019-05-05T18:07:04.100Z,58.43
2019-05-05T18:09:35.329Z,58.34
2019-05-05T18:12:17.659Z,57.97
2019-05-05T18:14:45.092Z,58.54
2019-05-05T18:17:13.681Z,58.43
2019-05-05T18:19:40.534Z,58.90
2019-05-05T18:22:08.835Z,59.72
2019-05-05T18:24:36.479Z,59.25
2019-05-05T18:27:04.554Z,59.40
2019-05-05T18:29:31.435Z,59.63
2019-05-05T18:31:58.906Z,58.50
2019-05-05T18:34:26.550Z,59.76
2019-05-05T18:36:54.560Z,59.48
2019-05-05T18:39:21.556Z,59.71
2019-05-05T18:41:49.907Z,60.00
2019-05-05T18:44:17.446Z,58.91
2019-05-05T18:46:45.040Z,59.26
2019-05-05T18:49:13.866Z,58.47
2019-05-05T18:51:39.941Z,58.55
2019-05-05T18:54:07.361Z,58.51
2019-05-05T18:56:34.870Z,58.71
2019-05-05T18:59:04.623Z,59.92
2019-05-05T19:01:33.761Z,59.06
2019-05-05T19:04:16.374Z,59.31
2019-05-05T19:06:54.665Z,59.43
2019-05-05T19:09:21.964Z,58.60
2019-05-05T19:11:49.392Z,59.16
2019-05-05T19:14:17.449Z,59.08
2019-05-05T19:16:45.436Z,57.95
2019-05-05T19:19:14.310Z,58.70
2019-05-05T19:24:14.691Z,58.46
2019-05-05T19:26:42.150Z,58.96
2019-05-05T19:29:09.575Z,59.09
2019-05-05T19:31:37.003Z,59.08
2019-05-05T19:34:04.482Z,59.68
2019-05-05T19:36:34.134Z,59.10
2019-05-05T19:38:59.361Z,59.30
2019-05-05T19:41:27.429Z,59.71
2019-05-05T19:43:55.259Z,59.89
2019-05-05T19:46:23.490Z,60.11
2019-05-05T19:48:49.884Z,60.38
2019-05-05T19:51:17.456Z,61.68
2019-05-05T19:53:44.956Z,61.44
2019-05-05T19:56:13.546Z,60.93
2019-05-05T19:58:40.007Z,60.94
2019-05-05T20:01:07.486Z,61.41
2019-05-05T20:03:35.507Z,62.05
2019-05-05T20:06:04.633Z,62.33
2019-05-05T20:08:40.399Z,62.48
2019-05-05T20:10:57.604Z,62.47
2019-05-05T20:13:25.208Z,62.67
2019-05-05T20:15:56.469Z,62.53
2019-05-05T20:18:24.893Z,62.24
2019-05-05T20:21:03.157Z,61.89
2019-05-05T20:23:19.167Z,62.64
2019-05-05T20:25:47.167Z,63.47
2019-05-05T20:28:14.651Z,62.78
2019-05-05T20:30:42.107Z,63.30
2019-05-05T20:33:10.042Z,63.70
2019-05-05T20:35:37.573Z,63.87
2019-05-05T20:38:05.930Z,63.62
2019-05-05T20:40:34.952Z,63.76
2019-05-05T20:43:01.185Z,63.69
2019-05-05T20:45:29.117Z,63.52
2019-05-05T20:47:57.618Z,63.60
2019-05-05T20:50:25.253Z,64.31
2019-05-05T20:52:53.547Z,64.65
2019-05-05T20:55:20.443Z,64.42
2019-05-05T20:57:49.179Z,65.03
2019-05-05T21:00:17.628Z,64.45
2019-05-05T21:02:45.105Z,64.64
2019-05-05T21:05:14.476Z,63.87
2019-05-05T21:07:40.194Z,64.42
2019-05-05T21:10:07.658Z,64.14
2019-05-05T21:12:42.375Z,64.62
2019-05-05T21:15:04.668Z,64.96
2019-05-05T21:17:30.098Z,65.51
2019-05-05T21:19:57.568Z,65.93
2019-05-05T21:22:41.589Z,66.44
2019-05-05T21:25:14.621Z,65.92
2019-05-05T21:27:43.592Z,66.32
2019-05-05T21:30:09.562Z,66.79
2019-05-05T21:32:37.022Z,66.51
2019-05-05T21:35:04.459Z,67.11
2019-05-05T21:37:33.903Z,66.90
2019-05-05T21:39:59.467Z,67.11
2019-05-05T21:42:26.944Z,67.02
2019-05-05T21:44:54.439Z,68.23
2019-05-05T21:47:23.853Z,68.84
2019-05-05T21:49:49.364Z,68.23
2019-05-05T21:52:18.637Z,68.36
2019-05-05T21:54:48.539Z,68.56
2019-05-05T21:57:23.375Z,69.70
2019-05-05T21:59:55.622Z,69.22
2019-05-05T22:02:16.643Z,69.67
2019-05-05T22:04:44.140Z,69.59
2019-05-05T22:07:11.594Z,70.14
2019-05-05T22:09:39.041Z,70.49
2019-05-05T22:12:06.482Z,70.96
2019-05-05T22:14:34.204Z,71.25
2019-05-05T22:17:03.986Z,71.66
2019-05-05T22:19:28.995Z,71.59
2019-05-05T22:21:59.358Z,72.06
2019-05-05T22:24:26.793Z,72.07
2019-05-05T22:26:54.379Z,72.81
2019-05-05T22:29:21.853Z,72.35
2019-05-05T22:31:49.594Z,72.98
2019-05-05T22:34:17.063Z,72.70
2019-05-05T22:36:45.034Z,72.17
2019-05-05T22:39:16.485Z,71.83
2019-05-05T22:41:40.820Z,72.56
2019-05-05T22:44:08.520Z,71.69
2019-05-05T22:46:36.023Z,72.13
2019-05-05T22:49:03.994Z,72.41
2019-05-05T22:51:30.933Z,72.71
2019-05-05T22:53:58.409Z,72.96
2019-05-05T22:56:25.882Z,73.20
2019-05-05T22:58:54.707Z,72.92
2019-05-05T23:01:20.776Z,73.11
2019-05-05T23:03:50.050Z,73.33
2019-05-05T23:06:18.293Z,73.27
2019-05-05T23:08:45.704Z,73.41
2019-05-05T23:11:14.527Z,72.92
2019-05-05T23:13:40.644Z,73.62
2019-05-05T23:16:09.508Z,73.82
2019-05-05T23:18:36.957Z,73.43
2019-05-05T23:21:08.189Z,72.70
2019-05-05T23:23:55.960Z,72.54
2019-05-05T23:26:24.635Z,72.27
2019-05-05T23:28:53.684Z,72.65
2019-05-05T23:31:19.572Z,72.75
2019-05-05T23:33:47.046Z,73.15
2019-05-05T23:36:15.215Z,73.16
2019-05-05T23:38:44.930Z,72.84
2019-05-05T23:41:10.257Z,72.63
2019-05-05T23:43:37.711Z,72.63
2019-05-05T23:46:05.133Z,73.09
2019-05-05T23:48:34.725Z,74.20
2019-05-05T23:51:01.065Z,75.37
2019-05-05T23:53:29.657Z,75.52
2019-05-05T23:55:58.192Z,75.68
2019-05-05T23:58:26.773Z,76.09
